Terminal Aerodrome Forecast
Issued by NWS

Home | Current Version | Previous Version | Text Only | Print | Product List | Glossary On
Versions: 1 2 3 4 5 6 7 8 9 10 11 12 13 14 15 16 17 18 19 20 21 22 23 24 25 26 27 28 29 30 31 32 33 34 35 36
227
FTUS45 KBOU 241010 AAA
TAFAPA
TAF AMD
KAPA 241010Z 2410/2506 33005KT P6SM SCT008 BKN120
     FM241200 33007KT P6SM BKN010
     FM241600 36013G21KT P6SM VCSH SCT008 BKN015 OVC025
      TEMPO 2416/2418 3SM -SHSN
     FM242100 03011KT P6SM SCT025 BKN050
     FM250100 36010KT P6SM SCT020 BKN040=

USA.gov is the U.S. government's official web portal to all federal, state and local government web resources and services.